FMCZ Airport Information

Runway Information
Runway 16 Length 6330 ft width 92 ft
Elevation 10 ft Threshold 250 ft Heading 150
Runway 34 Length 6330 ft Width 92 ft
Elevation 23 ft Threshold 0 ft Heading 330
Airport Frequencies
Type AFIS Name AFIS Frequency 119.2 MHZ
Airport Navaids
Type VOR-DME Name Dzaoudzi Pamandzi Frequency 113500 KHZ
Type NDB Name Dzaoudzi Pamandzi Frequency 341 KHZ
Airport Weather Information & NOTAM
ADDS - METARS form results

(1218 UTC 22 October 2019)
Data provider http://aviationweather.gov/metar/data/
 
METAR text: FMCZ 221200Z AUTO 18005KT 130V210 CAVOK 31/24 Q1010 NOSIG
Conditions at: FMCZ (DZAOUDZI/PAMANZI, KM) observed 1200 UTC 22 October 2019
Temperature: 31.0°C (88°F)
Dewpoint: 24.0°C (75°F) [RH = 66%]
Pressure (altimeter): 29.82 inches Hg (1010.0 mb)
Winds: from the S (180 degrees) at 6 MPH (5 knots; 2.6 m/s)
Visibility: 6 or more miles (10+ km)
Ceiling: ceiling and visibility are OK
Clouds: unknown
Weather: no significant weather observed at this time

METAR text: FMCZ 221130Z AUTO 19006KT 150V220 CAVOK 31/24 Q1010 NOSIG
Conditions at: FMCZ (DZAOUDZI/PAMANZI, KM) observed 1130 UTC 22 October 2019
Temperature: 31.0°C (88°F)
Dewpoint: 24.0°C (75°F) [RH = 66%]
Pressure (altimeter): 29.82 inches Hg (1010.0 mb)
Winds: from the S (190 degrees) at 7 MPH (6 knots; 3.1 m/s)
Visibility: 6 or more miles (10+ km)
Ceiling: ceiling and visibility are OK
Clouds: unknown
Weather: no significant weather observed at this time

Forecast for: FMCZ (DZAOUDZI/PAMANZI, KM)
Text: TAF FMCZ 221100Z 2212/2312 18006KT 9999 FEW020
Forecast period: 1200 UTC 22 October 2019 to 1200 UTC 23 October 2019
Forecast type: FROM: standard forecast or significant change
Winds: from the S (180 degrees) at 7 MPH (6 knots; 3.1 m/s)
Visibility: 6 or more miles 10+ km)
Ceiling: at least 12,000 feet AGL
Clouds: few clouds at 2000 feet AGL
Weather: no significant weather forecast for this period
Text: TEMPO 2305/2312 12016KT SHRA SCT020TCU SCT050
Forecast period: 0500 to 1200 UTC 23 October 2019
Forecast type: TEMPORARY: The following changes expected for less than half the time period
Winds: from the ESE (120 degrees) at 18 MPH (16 knots; 8.2 m/s)
Visibility: missing
Ceiling: at least 12,000 feet AGL
Clouds: scattered clouds at 2000 feet AGL
scattered clouds at 5000 feet AGL
Weather: SHRA  (rain showers)